Time;durP1;ratioP1;P1;durP2;ratioP2;P2;SDS_P1;SDS_P2;PMS_P1;PMS_P2;Temp;Humidity;BMP_temperature;BMP_pressure;BME280_temperature;BME280_humidity;BME280_pressure;Samples;Min_cycle;Max_cycle;Signal;HPM_P1;HPM_P2
2022/07/04 00:02:16;;;;;;;;;;;;;;;15.28;74.06;99578.44;8369359;28;20344;-75
2022/07/04 00:06:17;;;;;;;;;;;;;;;15.23;74.44;99586.34;8371062;28;19928;-75
2022/07/04 00:10:20;;;;;;;;;;;;;;;15.19;74.44;99584.69;8349619;28;19929;-75
2022/07/04 00:14:21;;;;;;;;;;;;;;;15.15;74.50;99588.28;8354860;28;19967;-75
2022/07/04 00:18:23;;;;;;;;;;;;;;;15.12;74.30;99590.94;8331750;28;20384;-75
2022/07/04 00:22:24;;;;;;;;;;;;;;;15.09;74.22;99581.41;8334557;28;20015;-76
2022/07/04 00:26:26;;;;;;;;;;;;;;;15.01;74.86;99590.28;8353070;28;19963;-76
2022/07/04 00:30:27;;;;;;;;;;;;;;;14.97;75.30;99593.84;8335836;28;20531;-75
2022/07/04 00:34:28;;;;;;;;;;;;;;;14.79;75.74;99605.50;8347911;28;20019;-76
2022/07/04 00:38:30;;;;;;;;;;;;;;;14.64;76.76;99604.03;8357318;28;20079;-76
2022/07/04 00:42:31;;;;;;;;;;;;;;;14.57;77.19;99607.66;8352615;28;20209;-75
2022/07/04 00:46:33;;;;;;;;;;;;;;;14.59;77.16;99603.25;8374404;28;20413;-75
2022/07/04 00:50:35;;;;;;;;;;;;;;;14.48;77.95;99626.06;8352190;28;20054;-76
2022/07/04 00:54:36;;;;;;;;;;;;;;;14.40;77.57;99628.78;8357389;28;19939;-76
2022/07/04 00:58:37;;;;;;;;;;;;;;;14.37;77.71;99631.47;8353347;28;19928;-76
2022/07/04 01:02:39;;;;;;;;;;;;;;;14.27;78.12;99629.00;8348819;28;20240;-75
2022/07/04 01:06:41;;;;;;;;;;;;;;;14.20;79.07;99630.88;8371714;28;19929;-75
2022/07/04 01:10:43;;;;;;;;;;;;;;;14.12;78.73;99627.50;8356398;28;19964;-75
2022/07/04 01:14:44;;;;;;;;;;;;;;;14.10;78.92;99637.09;8370677;28;19963;-76
2022/07/04 01:18:46;;;;;;;;;;;;;;;14.05;78.95;99631.09;8362250;28;20524;-76
2022/07/04 01:22:47;;;;;;;;;;;;;;;13.99;79.25;99632.00;8365211;28;20233;-76
2022/07/04 01:26:49;;;;;;;;;;;;;;;13.95;79.58;99632.94;8378240;28;20359;-76
2022/07/04 01:30:51;;;;;;;;;;;;;;;13.93;80.05;99633.88;8359693;28;20330;-76
2022/07/04 01:34:52;;;;;;;;;;;;;;;13.85;79.89;99636.59;8374285;28;19929;-76
2022/07/04 01:38:56;;;;;;;;;;;;;;;13.74;80.04;99636.72;8374951;28;20302;-76
2022/07/04 01:42:58;;;;;;;;;;;;;;;13.72;80.65;99640.25;8355353;28;20395;-76
2022/07/04 01:47:00;;;;;;;;;;;;;;;13.66;80.84;99643.81;8360697;28;19935;-76
2022/07/04 01:51:02;;;;;;;;;;;;;;;13.63;80.43;99642.94;8380179;28;20402;-75
2022/07/04 01:55:04;;;;;;;;;;;;;;;13.60;80.73;99644.72;8366714;28;20344;-76
2022/07/04 01:59:05;;;;;;;;;;;;;;;13.51;80.58;99651.81;8381853;28;19932;-76
2022/07/04 02:03:06;;;;;;;;;;;;;;;13.45;81.05;99655.34;8368613;28;19956;-75
2022/07/04 02:07:08;;;;;;;;;;;;;;;13.40;82.15;99653.69;8381158;28;19933;-76
2022/07/04 02:11:09;;;;;;;;;;;;;;;13.33;81.07;99655.50;8385558;28;20329;-76
2022/07/04 02:15:11;;;;;;;;;;;;;;;13.29;80.85;99651.22;8361811;28;19924;-76
2022/07/04 02:19:12;;;;;;;;;;;;;;;13.25;81.66;99650.34;8380062;28;19932;-76
2022/07/04 02:23:13;;;;;;;;;;;;;;;13.19;82.18;99654.78;8362939;28;19935;-75
2022/07/04 02:27:15;;;;;;;;;;;;;;;12.96;82.64;99652.41;8368215;28;19928;-76
2022/07/04 02:31:16;;;;;;;;;;;;;;;12.99;83.35;99657.56;8381707;28;19935;-77
2022/07/04 02:35:18;;;;;;;;;;;;;;;12.96;82.34;99661.06;8348497;28;19958;-77
2022/07/04 02:39:19;;;;;;;;;;;;;;;12.96;81.45;99660.22;8345168;28;19929;-77
2022/07/04 02:43:21;;;;;;;;;;;;;;;12.93;82.02;99666.31;8364582;28;20678;-77
2022/07/04 02:47:22;;;;;;;;;;;;;;;12.85;82.51;99672.47;8320939;28;19928;-77
2022/07/04 02:51:24;;;;;;;;;;;;;;;12.78;82.52;99676.88;8322206;28;20037;-77
2022/07/04 02:55:25;;;;;;;;;;;;;;;12.58;83.57;99676.19;8297940;28;19935;-76
2022/07/04 02:59:26;;;;;;;;;;;;;;;12.46;83.83;99674.53;8324801;28;19965;-77
2022/07/04 03:03:28;;;;;;;;;;;;;;;12.50;84.24;99676.22;8289217;28;19983;-76
2022/07/04 03:07:29;;;;;;;;;;;;;;;12.48;83.63;99670.16;8303112;28;19940;-77
2022/07/04 03:11:31;;;;;;;;;;;;;;;12.33;84.48;99678.09;8303240;28;19974;-75
2022/07/04 03:15:32;;;;;;;;;;;;;;;12.27;85.16;99679.00;8318672;28;19929;-77
2022/07/04 03:19:34;;;;;;;;;;;;;;;12.32;85.15;99678.97;8358322;28;19959;-76
2022/07/04 03:23:37;;;;;;;;;;;;;;;12.32;84.74;99687.63;8338435;28;19967;-77
2022/07/04 03:27:38;;;;;;;;;;;;;;;12.35;83.82;99692.81;8355653;28;19929;-77
2022/07/04 03:31:40;;;;;;;;;;;;;;;12.31;83.96;99700.66;8321528;28;19952;-77
2022/07/04 03:35:41;;;;;;;;;;;;;;;12.25;84.38;99692.91;8328279;28;19972;-77
2022/07/04 03:39:43;;;;;;;;;;;;;;;12.27;85.01;99692.03;8335849;28;20408;-76
2022/07/04 03:43:50;;;;;;;;;;;;;;;12.24;84.74;99679.03;8343427;28;19929;-76
2022/07/04 03:47:52;;;;;;;;;;;;;;;12.20;85.32;99679.03;8326271;28;19969;-76
2022/07/04 03:51:53;;;;;;;;;;;;;;;12.15;85.11;99688.63;8334366;28;19988;-76
2022/07/04 03:55:55;;;;;;;;;;;;;;;12.12;85.43;99689.50;8316064;28;19936;-77
2022/07/04 03:59:56;;;;;;;;;;;;;;;12.08;86.35;99703.41;8335530;28;19964;-77
2022/07/04 04:08:18;;;;;;;;;;;;;;;12.06;85.71;99700.84;8305201;28;19925;-77
2022/07/04 04:12:20;;;;;;;;;;;;;;;12.03;86.61;99700.84;8313047;28;19968;-77
2022/07/04 04:16:21;;;;;;;;;;;;;;;12.17;86.35;99699.88;8298688;28;19969;-77
2022/07/04 04:20:22;;;;;;;;;;;;;;;12.30;85.73;99702.41;8319416;28;20242;-77
2022/07/04 04:24:24;;;;;;;;;;;;;;;12.44;85.43;99707.53;8301402;28;19935;-77
2022/07/04 04:28:25;;;;;;;;;;;;;;;12.54;85.08;99714.38;8319249;28;19939;-77
2022/07/04 04:32:26;;;;;;;;;;;;;;;12.65;84.64;99715.19;8320798;28;19969;-77
2022/07/04 04:36:28;;;;;;;;;;;;;;;12.76;84.20;99717.72;8329426;28;20015;-77
2022/07/04 04:40:29;;;;;;;;;;;;;;;12.92;84.20;99724.50;8337997;28;20319;-77
2022/07/04 04:44:31;;;;;;;;;;;;;;;13.01;84.08;99736.63;8353046;28;19928;-78
2022/07/04 04:48:32;;;;;;;;;;;;;;;13.17;82.29;99743.41;8358019;28;19924;-78
2022/07/04 04:52:34;;;;;;;;;;;;;;;13.34;80.83;99737.22;8401571;28;20387;-78
2022/07/04 04:56:35;;;;;;;;;;;;;;;13.46;81.71;99742.28;8365951;28;20030;-79
2022/07/04 05:00:36;;;;;;;;;;;;;;;13.65;81.30;99738.63;8397339;28;19932;-76
2022/07/04 05:04:38;;;;;;;;;;;;;;;13.83;81.02;99735.81;8382100;28;20248;-78
2022/07/04 05:08:39;;;;;;;;;;;;;;;14.09;80.08;99739.81;8405001;28;19928;-77
2022/07/04 05:12:41;;;;;;;;;;;;;;;14.32;79.39;99742.13;8379357;28;19928;-77
2022/07/04 05:16:42;;;;;;;;;;;;;;;14.54;78.21;99747.91;8372461;28;19973;-77
2022/07/04 05:20:44;;;;;;;;;;;;;;;14.78;76.46;99753.66;8363809;28;19933;-77
2022/07/04 05:24:46;;;;;;;;;;;;;;;15.04;76.16;99753.22;8365692;28;19943;-77
2022/07/04 05:28:48;;;;;;;;;;;;;;;15.28;75.85;99759.81;8350613;28;19944;-75
2022/07/04 05:32:49;;;;;;;;;;;;;;;15.56;74.49;99749.69;8349532;28;19928;-74
2022/07/04 05:36:51;;;;;;;;;;;;;;;15.88;73.51;99746.47;8325889;28;19929;-75
2022/07/04 05:40:53;;;;;;;;;;;;;;;16.24;72.47;99738.75;8300530;28;19964;-77
2022/07/04 05:44:54;;;;;;;;;;;;;;;16.68;71.23;99739.50;8286597;28;19931;-77
2022/07/04 05:48:55;;;;;;;;;;;;;;;17.26;69.05;99728.44;8333051;28;20389;-77
2022/07/04 05:52:57;;;;;;;;;;;;;;;17.87;67.37;99736.44;8337453;28;19966;-77
2022/07/04 05:56:58;;;;;;;;;;;;;;;18.46;65.72;99725.91;8299708;28;20019;-78
2022/07/04 06:00:59;;;;;;;;;;;;;;;19.01;63.09;99732.91;8318092;28;19929;-77
2022/07/04 06:05:01;;;;;;;;;;;;;;;19.51;61.62;99723.28;8333063;28;20913;-77
2022/07/04 06:09:03;;;;;;;;;;;;;;;19.99;59.85;99727.72;8330078;28;20012;-75
2022/07/04 06:13:05;;;;;;;;;;;;;;;20.44;57.24;99729.53;8308287;28;20019;-78
2022/07/04 06:17:10;;;;;;;;;;;;;;;20.95;56.25;99723.94;8310078;28;20292;-77
2022/07/04 06:21:11;;;;;;;;;;;;;;;21.49;53.98;99709.31;8340763;28;19936;-77
2022/07/04 06:25:14;;;;;;;;;;;;;;;22.09;52.22;99718.09;8347893;28;19929;-77
2022/07/04 06:29:15;;;;;;;;;;;;;;;22.61;51.14;99712.97;8354475;28;19943;-77
2022/07/04 06:33:18;;;;;;;;;;;;;;;23.05;50.01;99709.97;8355664;28;19936;-76
2022/07/04 06:37:20;;;;;;;;;;;;;;;23.20;48.06;99703.88;8358017;28;19935;-76
2022/07/04 06:41:21;;;;;;;;;;;;;;;23.49;47.12;99703.22;8341764;28;19967;-76
2022/07/04 06:45:22;;;;;;;;;;;;;;;23.58;46.69;99709.88;8351198;28;19933;-76
2022/07/04 06:49:24;;;;;;;;;;;;;;;23.55;46.75;99695.91;8371119;28;19935;-76
2022/07/04 06:53:25;;;;;;;;;;;;;;;23.64;46.45;99683.03;8333568;28;19944;-76
2022/07/04 06:57:27;;;;;;;;;;;;;;;23.80;45.86;99688.38;8334967;28;20309;-75
2022/07/04 07:01:32;;;;;;;;;;;;;;;23.97;46.32;99687.47;8319839;28;19929;-76
2022/07/04 07:05:36;;;;;;;;;;;;;;;24.28;44.68;99683.97;8325138;28;19968;-75
2022/07/04 07:09:58;;;;;;;;;;;;;;;24.50;42.59;99688.94;8317088;28;19991;-75
2022/07/04 07:13:59;;;;;;;;;;;;;;;24.66;42.37;99690.66;8345436;28;20330;-75
2022/07/04 07:18:03;;;;;;;;;;;;;;;24.74;41.82;99695.50;8345545;28;19968;-75
2022/07/04 07:22:05;;;;;;;;;;;;;;;24.76;41.70;99695.41;8317037;28;19980;-76
2022/07/04 07:26:06;;;;;;;;;;;;;;;24.98;42.71;99698.56;8342530;28;19936;-76
2022/07/04 07:30:08;;;;;;;;;;;;;;;25.04;40.65;99708.84;8330623;28;19940;-75
2022/07/04 07:34:10;;;;;;;;;;;;;;;25.23;42.14;99703.28;8341093;28;19960;-75
2022/07/04 07:38:11;;;;;;;;;;;;;;;25.48;40.82;99703.50;8329967;28;19972;-76
2022/07/04 07:42:12;;;;;;;;;;;;;;;25.66;41.21;99712.19;8328100;28;19928;-76
2022/07/04 07:46:14;;;;;;;;;;;;;;;25.75;39.39;99711.66;8322917;28;19928;-76
2022/07/04 07:50:15;;;;;;;;;;;;;;;25.78;38.72;99714.13;8317770;28;19928;-75
2022/07/04 07:54:17;;;;;;;;;;;;;;;26.02;39.58;99713.53;8325957;28;20352;-75
2022/07/04 07:58:32;;;;;;;;;;;;;;;26.03;38.11;99709.91;8345494;28;20829;-75
2022/07/04 08:06:54;;;;;;;;;;;;;;;26.14;37.13;99718.94;8332305;28;19929;-75
2022/07/04 08:11:15;;;;;;;;;;;;;;;26.20;38.54;99709.72;8317524;28;19986;-75
2022/07/04 08:15:16;;;;;;;;;;;;;;;26.34;36.67;99711.50;8331994;28;19968;-75
2022/07/04 08:19:18;;;;;;;;;;;;;;;26.20;35.43;99699.06;8326105;28;19972;-75
2022/07/04 08:23:20;;;;;;;;;;;;;;;26.35;36.51;99700.78;8313837;28;19936;-75
2022/07/04 08:27:24;;;;;;;;;;;;;;;26.43;36.52;99700.31;8314408;28;19968;-75
2022/07/04 08:31:33;;;;;;;;;;;;;;;26.32;35.82;99692.09;8332436;28;20023;-73
2022/07/04 08:35:53;;;;;;;;;;;;;;;26.53;35.88;99690.75;8354381;28;19928;-74
2022/07/04 08:39:55;;;;;;;;;;;;;;;26.88;36.66;99693.75;8344133;28;19991;-74
2022/07/04 08:43:56;;;;;;;;;;;;;;;26.77;34.28;99681.16;8358232;28;19975;-74
2022/07/04 08:48:08;;;;;;;;;;;;;;;26.89;34.57;99682.13;8302599;28;19933;-74
2022/07/04 08:52:11;;;;;;;;;;;;;;;26.98;36.58;99670.84;8300275;28;19994;-74
2022/07/04 09:00:33;;;;;;;;;;;;;;;26.95;33.44;99668.41;8329229;28;19939;-72
2022/07/04 09:04:34;;;;;;;;;;;;;;;27.15;33.41;99660.91;8372100;28;20602;-72
2022/07/04 09:08:37;;;;;;;;;;;;;;;27.34;33.82;99653.34;8364833;28;19924;-72
2022/07/04 09:12:38;;;;;;;;;;;;;;;27.34;32.47;99658.66;8370440;28;20027;-72
2022/07/04 09:17:00;;;;;;;;;;;;;;;27.35;33.38;99657.72;8350081;28;19932;-72
2022/07/04 09:21:02;;;;;;;;;;;;;;;27.27;33.79;99658.22;8337544;28;19933;-72
2022/07/04 09:25:05;;;;;;;;;;;;;;;27.43;32.13;99655.34;8333445;28;19972;-74
2022/07/04 09:29:07;;;;;;;;;;;;;;;27.39;32.19;99651.19;8333754;28;19976;-74
2022/07/04 09:33:08;;;;;;;;;;;;;;;27.44;33.56;99646.38;8338544;28;19950;-72
2022/07/04 09:37:10;;;;;;;;;;;;;;;27.68;33.25;99636.69;8368718;28;19932;-72
2022/07/04 09:41:29;;;;;;;;;;;;;;;27.66;32.03;99633.28;8366474;28;20773;-74
2022/07/04 09:45:31;;;;;;;;;;;;;;;27.51;32.68;99634.34;8364071;28;19928;-74
2022/07/04 09:49:32;;;;;;;;;;;;;;;27.59;33.32;99639.97;8369619;28;19939;-74
2022/07/04 09:53:34;;;;;;;;;;;;;;;27.58;33.00;99637.41;8369712;28;19939;-74
2022/07/04 09:57:36;;;;;;;;;;;;;;;27.04;32.48;99637.63;8371810;28;19933;-74
2022/07/04 10:01:39;;;;;;;;;;;;;;;26.96;34.05;99632.78;8347181;28;19979;-74
2022/07/04 10:05:40;;;;;;;;;;;;;;;26.68;32.68;99639.13;8368771;28;19934;-74
2022/07/04 10:09:42;;;;;;;;;;;;;;;26.60;33.85;99640.59;8354965;28;19972;-74
2022/07/04 10:13:43;;;;;;;;;;;;;;;26.98;33.65;99636.22;8371298;28;19928;-74
2022/07/04 10:17:45;;;;;;;;;;;;;;;26.99;34.27;99632.59;8368632;28;19928;-74
2022/07/04 10:21:47;;;;;;;;;;;;;;;27.47;35.21;99634.63;8370096;28;19929;-74
2022/07/04 10:25:49;;;;;;;;;;;;;;;27.37;31.63;99632.63;8366834;28;20385;-74
2022/07/04 10:29:51;;;;;;;;;;;;;;;27.54;30.35;99635.94;8348716;28;19929;-74
2022/07/04 10:33:54;;;;;;;;;;;;;;;27.65;32.80;99631.59;8346483;28;19955;-74
2022/07/04 10:38:03;;;;;;;;;;;;;;;27.71;31.07;99630.28;8366775;28;19929;-73
2022/07/04 10:42:06;;;;;;;;;;;;;;;27.83;31.55;99625.88;8376444;28;19932;-72
2022/07/04 10:46:17;;;;;;;;;;;;;;;27.86;31.21;99618.53;8380193;28;19944;-72
2022/07/04 10:50:28;;;;;;;;;;;;;;;28.02;32.21;99617.41;8379217;28;19960;-72
2022/07/04 10:54:31;;;;;;;;;;;;;;;27.90;31.39;99613.81;8366608;28;20036;-72
2022/07/04 10:58:40;;;;;;;;;;;;;;;28.02;32.58;99607.59;8381468;28;20401;-72
2022/07/04 11:02:41;;;;;;;;;;;;;;;28.18;31.97;99607.28;8360365;28;20431;-72
2022/07/04 11:06:54;;;;;;;;;;;;;;;27.98;32.06;99603.41;8364186;28;19928;-74
2022/07/04 11:11:05;;;;;;;;;;;;;;;28.32;31.68;99609.84;8360990;28;20337;-73
2022/07/04 11:15:07;;;;;;;;;;;;;;;28.37;31.52;99610.38;8340263;28;19959;-73
2022/07/04 11:19:08;;;;;;;;;;;;;;;28.30;31.40;99606.44;8367948;28;19978;-73
2022/07/04 11:23:11;;;;;;;;;;;;;;;28.15;30.46;99608.38;8366250;28;19970;-73
2022/07/04 11:27:12;;;;;;;;;;;;;;;28.21;32.75;99604.41;8362910;28;20843;-73
2022/07/04 11:31:14;;;;;;;;;;;;;;;28.15;31.73;99607.53;8370108;28;19972;-73
2022/07/04 11:35:20;;;;;;;;;;;;;;;28.36;32.53;99610.44;8373833;28;20324;-73
2022/07/04 11:39:21;;;;;;;;;;;;;;;28.52;30.21;99606.53;8380902;28;20099;-73
2022/07/04 11:47:43;;;;;;;;;;;;;;;28.68;29.44;99600.03;8345459;28;20023;-73
2022/07/04 11:51:46;;;;;;;;;;;;;;;28.76;29.59;99592.28;8380508;28;19939;-73
2022/07/04 11:55:53;;;;;;;;;;;;;;;28.73;30.34;99590.72;8382538;28;19929;-71
2022/07/04 11:59:58;;;;;;;;;;;;;;;28.58;28.69;99590.03;8365793;28;20237;-72
2022/07/04 12:04:10;;;;;;;;;;;;;;;28.56;30.26;99581.28;8370041;28;19933;-71
2022/07/04 12:08:12;;;;;;;;;;;;;;;28.66;28.97;99583.25;8369330;28;19929;-71
2022/07/04 12:12:29;;;;;;;;;;;;;;;28.76;28.17;99573.59;8358936;28;20022;-72
2022/07/04 12:16:30;;;;;;;;;;;;;;;28.39;28.44;99571.03;8377389;28;20002;-72
2022/07/04 12:20:32;;;;;;;;;;;;;;;28.41;28.55;99571.75;8365752;28;19928;-74
2022/07/04 12:24:42;;;;;;;;;;;;;;;28.23;30.35;99568.63;8383051;28;20276;-72
2022/07/04 12:28:44;;;;;;;;;;;;;;;28.38;29.67;99563.13;8384773;28;19964;-73
2022/07/04 12:32:47;;;;;;;;;;;;;;;28.32;28.78;99556.41;8364821;28;19935;-73
2022/07/04 12:36:49;;;;;;;;;;;;;;;28.59;29.28;99549.00;8382217;28;20244;-74
2022/07/04 12:40:53;;;;;;;;;;;;;;;28.76;28.30;99544.19;8381156;28;19986;-74
2022/07/04 12:45:04;;;;;;;;;;;;;;;28.74;29.37;99540.78;8375809;28;19928;-74
2022/07/04 12:49:06;;;;;;;;;;;;;;;28.65;29.99;99531.63;8377172;28;20664;-74
2022/07/04 12:53:07;;;;;;;;;;;;;;;28.53;29.00;99530.75;8363235;28;19928;-73
2022/07/04 12:57:12;;;;;;;;;;;;;;;28.76;30.44;99538.84;8361332;28;20031;-73
2022/07/04 13:01:14;;;;;;;;;;;;;;;28.89;29.33;99531.56;8371957;28;20393;-74
2022/07/04 13:05:16;;;;;;;;;;;;;;;28.88;27.90;99540.56;8378127;28;19928;-74
2022/07/04 13:09:17;;;;;;;;;;;;;;;28.88;28.02;99522.72;8361195;28;20051;-73
2022/07/04 13:13:19;;;;;;;;;;;;;;;28.91;28.37;99523.47;8378745;28;19934;-74
2022/07/04 13:17:21;;;;;;;;;;;;;;;28.99;27.54;99529.91;8378698;28;20387;-75
2022/07/04 13:21:23;;;;;;;;;;;;;;;29.03;27.55;99523.34;8385817;28;19934;-75
2022/07/04 13:25:24;;;;;;;;;;;;;;;28.97;26.96;99521.16;8359182;28;19928;-76
2022/07/04 13:29:26;;;;;;;;;;;;;;;29.15;26.86;99514.34;8375290;28;19928;-75
2022/07/04 13:33:27;;;;;;;;;;;;;;;29.13;26.93;99515.44;8376283;28;20442;-75
2022/07/04 13:37:29;;;;;;;;;;;;;;;29.36;26.29;99502.91;8376294;28;20351;-74
2022/07/04 13:41:34;;;;;;;;;;;;;;;29.26;26.29;99497.44;8372974;28;19928;-76
2022/07/04 13:45:36;;;;;;;;;;;;;;;29.24;24.66;99493.19;8344179;28;19929;-76
2022/07/04 13:49:37;;;;;;;;;;;;;;;29.28;26.79;99486.63;8380468;28;19946;-75
2022/07/04 13:53:38;;;;;;;;;;;;;;;29.20;25.84;99479.22;8386633;28;20240;-76
2022/07/04 13:57:40;;;;;;;;;;;;;;;29.09;27.07;99487.25;8369438;28;19940;-75
2022/07/04 14:01:41;;;;;;;;;;;;;;;28.97;27.41;99477.53;8377775;28;19943;-74
2022/07/04 14:05:43;;;;;;;;;;;;;;;28.95;26.50;99466.94;8384837;28;20299;-74
2022/07/04 14:09:44;;;;;;;;;;;;;;;28.90;27.83;99458.41;8382174;28;20046;-74
2022/07/04 14:13:46;;;;;;;;;;;;;;;28.85;28.41;99456.09;8382353;28;20340;-74
2022/07/04 14:17:47;;;;;;;;;;;;;;;28.82;27.02;99458.16;8370190;28;19932;-74
2022/07/04 14:21:51;;;;;;;;;;;;;;;28.93;27.06;99452.00;8384396;28;19933;-75
2022/07/04 14:25:52;;;;;;;;;;;;;;;28.92;26.82;99452.97;8373481;28;20015;-74
2022/07/04 14:29:54;;;;;;;;;;;;;;;28.96;27.41;99454.44;8364533;28;19963;-75
2022/07/04 14:33:56;;;;;;;;;;;;;;;29.06;26.17;99445.53;8369723;28;19964;-75
2022/07/04 14:37:58;;;;;;;;;;;;;;;29.11;27.21;99448.72;8381272;28;19932;-74
2022/07/04 14:41:59;;;;;;;;;;;;;;;29.03;27.11;99450.28;8371197;28;20585;-74
2022/07/04 14:46:01;;;;;;;;;;;;;;;28.83;27.30;99446.50;8365019;28;19928;-74
2022/07/04 14:50:03;;;;;;;;;;;;;;;28.62;28.26;99427.66;8348550;28;19986;-72
2022/07/04 14:54:04;;;;;;;;;;;;;;;28.82;28.39;99434.09;8379595;28;19967;-73
2022/07/04 14:58:06;;;;;;;;;;;;;;;28.84;27.68;99440.16;8357064;28;20713;-73
2022/07/04 15:02:07;;;;;;;;;;;;;;;28.82;27.57;99434.94;8365519;28;19934;-73
2022/07/04 15:06:08;;;;;;;;;;;;;;;29.01;27.96;99433.53;8382668;28;19939;-73
2022/07/04 15:10:12;;;;;;;;;;;;;;;29.19;27.72;99426.69;8367722;28;19982;-73
2022/07/04 15:14:14;;;;;;;;;;;;;;;29.16;27.82;99430.47;8387759;28;19939;-74
2022/07/04 15:18:15;;;;;;;;;;;;;;;29.27;28.42;99426.09;8374592;28;19960;-73
2022/07/04 15:26:40;;;;;;;;;;;;;;;29.13;26.27;99419.19;8387774;28;20562;-74
2022/07/04 15:30:42;;;;;;;;;;;;;;;29.53;29.07;99421.31;8387332;28;19928;-73
2022/07/04 15:34:43;;;;;;;;;;;;;;;29.52;26.58;99430.31;8371959;28;19939;-72
2022/07/04 15:39:09;;;;;;;;;;;;;;;29.40;26.96;99424.94;8375249;28;19989;-73
2022/07/04 15:43:10;;;;;;;;;;;;;;;29.27;27.11;99429.63;8374531;28;21234;-73
2022/07/04 15:47:12;;;;;;;;;;;;;;;29.10;27.69;99422.09;8383110;28;20314;-74
2022/07/04 15:51:13;;;;;;;;;;;;;;;29.13;27.42;99417.34;8382296;28;19976;-74
2022/07/04 15:55:35;;;;;;;;;;;;;;;29.34;27.58;99412.06;8369756;28;20360;-73
2022/07/04 15:59:36;;;;;;;;;;;;;;;29.38;27.39;99405.50;8385559;28;20027;-73
2022/07/04 16:03:38;;;;;;;;;;;;;;;29.42;26.63;99414.13;8360218;28;19928;-74
2022/07/04 16:07:39;;;;;;;;;;;;;;;29.28;27.07;99409.06;8353629;28;20339;-74
2022/07/04 16:11:41;;;;;;;;;;;;;;;29.40;26.75;99403.53;8376015;28;19979;-74
2022/07/04 16:15:42;;;;;;;;;;;;;;;29.53;26.12;99391.88;8362871;28;19967;-74
2022/07/04 16:19:44;;;;;;;;;;;;;;;29.32;26.36;99378.41;8376540;28;19928;-74
2022/07/04 16:23:45;;;;;;;;;;;;;;;29.50;26.84;99390.28;8362075;28;20066;-74
2022/07/04 16:27:46;;;;;;;;;;;;;;;29.79;26.98;99391.38;8380509;28;19967;-74
2022/07/04 16:31:48;;;;;;;;;;;;;;;29.83;26.33;99378.59;8377231;28;20019;-73
2022/07/04 16:35:50;;;;;;;;;;;;;;;29.84;26.21;99391.00;8355923;28;20414;-73
2022/07/04 16:39:51;;;;;;;;;;;;;;;29.58;26.20;99387.81;8344816;28;19941;-73
2022/07/04 16:43:53;;;;;;;;;;;;;;;29.14;26.25;99394.97;8348583;28;19928;-74
2022/07/04 16:47:54;;;;;;;;;;;;;;;28.79;26.67;99388.91;8348370;28;20003;-73
2022/07/04 16:51:55;;;;;;;;;;;;;;;28.32;27.68;99388.13;8316668;28;19928;-73
2022/07/04 16:55:58;;;;;;;;;;;;;;;27.90;28.21;99393.13;8348172;28;20019;-74
2022/07/04 16:59:59;;;;;;;;;;;;;;;27.60;28.05;99393.56;8348634;28;19939;-74
2022/07/04 17:04:01;;;;;;;;;;;;;;;27.29;29.51;99399.44;8331650;28;20321;-71
2022/07/04 17:08:02;;;;;;;;;;;;;;;27.02;29.03;99397.84;8331115;28;19944;-73
2022/07/04 17:12:04;;;;;;;;;;;;;;;26.75;29.35;99395.31;8345142;28;19986;-73
2022/07/04 17:16:05;;;;;;;;;;;;;;;26.55;30.03;99395.00;8328280;28;19928;-73
2022/07/04 17:20:07;;;;;;;;;;;;;;;26.36;30.62;99409.59;8342979;28;19932;-73
2022/07/04 17:24:08;;;;;;;;;;;;;;;26.22;30.21;99409.66;8345280;28;20671;-73
2022/07/04 17:28:10;;;;;;;;;;;;;;;26.06;30.24;99403.69;8340961;28;20395;-72
2022/07/04 17:32:11;;;;;;;;;;;;;;;25.94;31.75;99408.00;8342105;28;19987;-73
2022/07/04 17:36:13;;;;;;;;;;;;;;;25.79;32.74;99409.88;8326602;28;19937;-73
2022/07/04 17:40:15;;;;;;;;;;;;;;;25.62;32.74;99412.78;8344833;28;19936;-73
2022/07/04 17:44:36;;;;;;;;;;;;;;;25.40;32.80;99407.16;8327039;28;20325;-73
2022/07/04 17:48:37;;;;;;;;;;;;;;;25.30;33.01;99421.03;8326709;28;19929;-72
2022/07/04 17:52:38;;;;;;;;;;;;;;;25.20;33.29;99417.28;8331033;28;20036;-73
2022/07/04 17:56:41;;;;;;;;;;;;;;;25.09;33.77;99419.75;8332231;28;19939;-73
2022/07/04 18:00:42;;;;;;;;;;;;;;;24.98;34.08;99416.91;8325040;28;20256;-73
2022/07/04 18:04:44;;;;;;;;;;;;;;;24.84;34.96;99420.44;8328275;28;19929;-73
2022/07/04 18:08:45;;;;;;;;;;;;;;;24.69;35.11;99419.56;8344300;28;20367;-73
2022/07/04 18:12:47;;;;;;;;;;;;;;;24.51;36.71;99422.50;8342298;28;20349;-73
2022/07/04 18:16:48;;;;;;;;;;;;;;;24.27;39.75;99424.84;8330303;28;20461;-73
2022/07/04 18:20:49;;;;;;;;;;;;;;;24.14;37.03;99424.69;8336680;28;20393;-73
2022/07/04 18:24:51;;;;;;;;;;;;;;;24.04;38.04;99431.47;8316336;28;19951;-73
2022/07/04 18:28:53;;;;;;;;;;;;;;;23.75;39.18;99442.00;8339859;28;20342;-73
2022/07/04 18:32:54;;;;;;;;;;;;;;;23.59;39.00;99441.19;8293183;28;20334;-74
2022/07/04 18:36:55;;;;;;;;;;;;;;;23.44;40.79;99450.81;8319200;28;20002;-73
2022/07/04 18:45:17;;;;;;;;;;;;;;;23.00;43.63;99450.63;8351795;28;19988;-74
2022/07/04 18:49:19;;;;;;;;;;;;;;;22.69;45.01;99450.53;8337225;28;20302;-74
2022/07/04 18:53:21;;;;;;;;;;;;;;;22.36;44.41;99455.78;8341487;28;20620;-74
2022/07/04 18:57:22;;;;;;;;;;;;;;;22.06;45.85;99463.47;8325566;28;19933;-74
2022/07/04 19:01:23;;;;;;;;;;;;;;;21.83;45.98;99460.16;8349946;28;19933;-73
2022/07/04 19:05:25;;;;;;;;;;;;;;;21.52;47.01;99471.38;8341912;28;20375;-73
2022/07/04 19:09:27;;;;;;;;;;;;;;;21.29;47.36;99475.09;8340816;28;20016;-73
2022/07/04 19:13:28;;;;;;;;;;;;;;;21.03;48.75;99480.72;8327877;28;20594;-71
2022/07/04 19:17:30;;;;;;;;;;;;;;;20.84;48.54;99483.34;8317549;28;19979;-73
2022/07/04 19:21:32;;;;;;;;;;;;;;;20.59;49.19;99485.31;8319696;28;20059;-73
2022/07/04 19:25:33;;;;;;;;;;;;;;;20.36;50.09;99487.16;8316195;28;19929;-72
2022/07/04 19:29:53;;;;;;;;;;;;;;;20.25;50.75;99486.75;8343812;28;19972;-72
2022/07/04 19:33:54;;;;;;;;;;;;;;;20.13;50.61;99488.13;8357033;28;19938;-72
2022/07/04 19:37:55;;;;;;;;;;;;;;;20.02;51.59;99490.34;8356641;28;19938;-72
2022/07/04 19:41:57;;;;;;;;;;;;;;;19.83;51.34;99487.59;8348758;28;19995;-72
2022/07/04 19:45:59;;;;;;;;;;;;;;;19.59;52.64;99493.88;8350150;28;19928;-72
2022/07/04 19:50:02;;;;;;;;;;;;;;;19.41;53.02;99500.69;8381228;28;19944;-71
2022/07/04 19:54:04;;;;;;;;;;;;;;;19.26;53.06;99509.16;8375041;28;20752;-71
2022/07/04 19:58:06;;;;;;;;;;;;;;;19.09;53.47;99515.06;8365025;28;19971;-71
2022/07/04 20:02:07;;;;;;;;;;;;;;;18.91;54.09;99524.47;8350287;28;20548;-70
2022/07/04 20:06:09;;;;;;;;;;;;;;;18.87;54.78;99527.28;8369762;28;20020;-70
2022/07/04 20:10:10;;;;;;;;;;;;;;;18.78;54.78;99532.88;8380028;28;19972;-72
2022/07/04 20:14:12;;;;;;;;;;;;;;;18.69;56.23;99536.69;8360417;28;19928;-72
2022/07/04 20:18:14;;;;;;;;;;;;;;;18.64;57.30;99539.47;8351663;28;19928;-72
2022/07/04 20:22:15;;;;;;;;;;;;;;;18.56;56.85;99552.00;8378518;28;19974;-72
2022/07/04 20:26:17;;;;;;;;;;;;;;;18.50;57.46;99557.47;8371243;28;19986;-72
2022/07/04 20:30:19;;;;;;;;;;;;;;;18.43;57.37;99550.69;8350381;28;19928;-72
2022/07/04 20:34:20;;;;;;;;;;;;;;;18.35;58.22;99552.72;8370189;28;19991;-73
2022/07/04 20:38:22;;;;;;;;;;;;;;;18.25;58.04;99556.56;8373864;28;19929;-75
2022/07/04 20:42:24;;;;;;;;;;;;;;;18.18;57.63;99557.69;8343076;28;19998;-75
2022/07/04 20:46:25;;;;;;;;;;;;;;;18.08;57.61;99575.50;8377710;28;20014;-73
2022/07/04 20:50:27;;;;;;;;;;;;;;;17.99;58.28;99571.41;8374353;28;19934;-73
2022/07/04 20:54:28;;;;;;;;;;;;;;;17.89;58.94;99579.63;8374920;28;19929;-72
2022/07/04 20:58:30;;;;;;;;;;;;;;;17.77;59.19;99581.75;8375390;28;20526;-72
2022/07/04 21:02:31;;;;;;;;;;;;;;;17.70;59.69;99580.19;8360619;28;19928;-72
2022/07/04 21:06:32;;;;;;;;;;;;;;;17.64;59.07;99582.13;8373783;28;20268;-72
2022/07/04 21:10:34;;;;;;;;;;;;;;;17.46;59.47;99591.41;8391857;28;20229;-75
2022/07/04 21:14:35;;;;;;;;;;;;;;;17.30;61.11;99582.25;8367866;28;19928;-75
2022/07/04 21:18:37;;;;;;;;;;;;;;;17.10;62.00;99590.69;8377080;28;19970;-75
2022/07/04 21:22:38;;;;;;;;;;;;;;;16.93;62.65;99588.53;8358056;28;19928;-77
2022/07/04 21:26:40;;;;;;;;;;;;;;;16.85;62.44;99598.34;8377151;28;20014;-75
2022/07/04 21:30:41;;;;;;;;;;;;;;;16.77;63.33;99595.94;8357403;28;19959;-76